Time;durP1;ratioP1;P1;durP2;ratioP2;P2;SDS_P1;SDS_P2;PMS_P1;PMS_P2;Temp;Humidity;BMP_temperature;BMP_pressure;BME280_temperature;BME280_humidity;BME280_pressure;Samples;Min_cycle;Max_cycle;Signal;HPM_P1;HPM_P2
2023/05/18 00:00:54;;;;;;;28.80;14.03;;;8.30;99.90;;;;;;4446235;28;658716;-74
2023/05/18 00:03:41;;;;;;;28.50;13.70;;;8.20;99.90;;;;;;4433529;28;658980;-74
2023/05/18 00:06:28;;;;;;;32.97;15.00;;;8.20;99.90;;;;;;4439129;28;659467;-74
2023/05/18 00:09:17;;;;;;;31.27;14.90;;;8.20;99.90;;;;;;4424426;28;659113;-74
2023/05/18 00:12:05;;;;;;;35.33;14.47;;;8.20;99.90;;;;;;4438276;28;658708;-74
2023/05/18 00:14:52;;;;;;;30.43;15.10;;;8.20;99.90;;;;;;4425361;28;659066;-73
2023/05/18 00:17:41;;;;;;;38.93;15.60;;;8.20;99.90;;;;;;4440540;28;658687;-73
2023/05/18 00:20:28;;;;;;;35.07;15.00;;;8.20;99.90;;;;;;4443954;28;659311;-74
2023/05/18 00:23:16;;;;;;;35.40;15.60;;;8.10;99.90;;;;;;4421627;28;658516;-74
2023/05/18 00:26:04;;;;;;;34.10;15.17;;;8.10;99.90;;;;;;4449260;28;659221;-74
2023/05/18 00:28:51;;;;;;;40.40;14.67;;;8.10;99.90;;;;;;4421147;28;659012;-74
2023/05/18 00:31:39;;;;;;;40.20;16.10;;;8.10;99.90;;;;;;4443000;28;659524;-73
2023/05/18 00:34:26;;;;;;;36.20;14.00;;;8.10;99.90;;;;;;4422202;28;659259;-74
2023/05/18 00:37:13;;;;;;;34.58;14.10;;;8.10;99.90;;;;;;4436050;28;659297;-74
2023/05/18 00:40:00;;;;;;;38.87;15.20;;;8.10;99.90;;;;;;4425394;28;659049;-73
2023/05/18 00:42:49;;;;;;;40.63;15.10;;;8.10;99.90;;;;;;4444756;28;659400;-74
2023/05/18 00:45:36;;;;;;;35.93;14.20;;;8.10;99.90;;;;;;4420367;28;658829;-73
2023/05/18 00:48:23;;;;;;;33.83;13.50;;;8.10;99.90;;;;;;4437365;28;659115;-73
2023/05/18 00:51:10;;;;;;;39.53;14.83;;;8.00;99.90;;;;;;4416112;28;658511;-73
2023/05/18 00:53:58;;;;;;;33.73;13.27;;;8.00;99.90;;;;;;4436964;28;659765;-74
2023/05/18 00:56:47;;;;;;;36.30;13.53;;;8.00;99.90;;;;;;4428529;28;658778;-73
2023/05/18 00:59:35;;;;;;;36.43;14.07;;;8.00;99.90;;;;;;4445148;28;658700;-74
2023/05/18 01:02:23;;;;;;;40.13;13.20;;;8.00;99.90;;;;;;4422103;28;659710;-74
2023/05/18 01:05:11;;;;;;;32.17;13.53;;;8.00;99.90;;;;;;4441173;28;658447;-73
2023/05/18 01:07:58;;;;;;;26.77;12.40;;;8.00;99.90;;;;;;4446953;28;659145;-74
2023/05/18 01:10:45;;;;;;;34.83;13.02;;;8.00;99.90;;;;;;4431073;28;658698;-73
2023/05/18 01:13:38;;;;;;;32.07;12.63;;;7.90;99.90;;;;;;4447709;28;659506;-74
2023/05/18 01:16:32;;;;;;;26.13;11.73;;;7.90;99.90;;;;;;4397492;28;659129;-73
2023/05/18 01:19:34;;;;;;;27.80;11.73;;;7.90;99.90;;;;;;4440201;28;659138;-73
2023/05/18 01:22:32;;;;;;;25.97;11.33;;;7.90;99.90;;;;;;4425713;28;658620;-74
2023/05/18 01:25:28;;;;;;;29.52;11.02;;;7.90;99.90;;;;;;4413983;28;659026;-73
2023/05/18 01:28:18;;;;;;;26.67;10.20;;;7.90;99.90;;;;;;4406385;28;658299;-73
2023/05/18 01:31:05;;;;;;;34.33;10.67;;;7.80;99.90;;;;;;4432318;28;658763;-73
2023/05/18 01:33:52;;;;;;;24.73;9.57;;;7.80;99.90;;;;;;4446121;28;658878;-74
2023/05/18 01:36:40;;;;;;;29.83;10.37;;;7.80;99.90;;;;;;4440406;28;657544;-73
2023/05/18 01:39:27;;;;;;;22.63;9.43;;;7.80;99.90;;;;;;4446794;28;659004;-73
2023/05/18 01:42:17;;;;;;;28.00;9.13;;;7.80;99.90;;;;;;4447856;28;660384;-74
2023/05/18 01:45:09;;;;;;;24.40;9.37;;;7.70;99.90;;;;;;4425130;28;657542;-73
2023/05/18 01:47:57;;;;;;;23.17;8.73;;;7.80;99.90;;;;;;4426777;28;657726;-73
2023/05/18 01:50:45;;;;;;;21.67;8.60;;;7.70;99.90;;;;;;4446387;28;657658;-73
2023/05/18 01:53:38;;;;;;;19.57;7.90;;;7.70;99.90;;;;;;4422132;28;657746;-74
2023/05/18 01:56:25;;;;;;;28.60;8.67;;;7.70;99.90;;;;;;4417475;28;657879;-73
2023/05/18 01:59:13;;;;;;;26.87;8.63;;;7.70;99.90;;;;;;4445501;28;658532;-74
2023/05/18 02:02:02;;;;;;;25.00;8.53;;;7.70;99.90;;;;;;4440231;28;657447;-72
2023/05/18 02:04:49;;;;;;;27.10;8.60;;;7.60;99.90;;;;;;4444655;28;658040;-73
2023/05/18 02:07:36;;;;;;;25.85;8.93;;;7.60;99.90;;;;;;4426853;28;658308;-72
2023/05/18 02:10:23;;;;;;;21.87;8.20;;;7.60;99.90;;;;;;4442057;28;657961;-74
2023/05/18 02:13:11;;;;;;;26.83;7.83;;;7.60;99.90;;;;;;4423603;28;657726;-74
2023/05/18 02:15:58;;;;;;;23.77;8.10;;;7.60;99.90;;;;;;4446112;28;658436;-73
2023/05/18 02:18:47;;;;;;;22.63;8.70;;;7.60;99.90;;;;;;4432458;28;657629;-73
2023/05/18 02:21:34;;;;;;;22.77;8.77;;;7.60;99.90;;;;;;4443247;28;657498;-73
2023/05/18 02:24:22;;;;;;;23.93;8.53;;;7.60;99.90;;;;;;4424155;28;657934;-74
2023/05/18 02:27:09;;;;;;;26.63;8.80;;;7.60;99.90;;;;;;4444300;28;657602;-73
2023/05/18 02:29:56;;;;;;;23.27;9.20;;;7.60;99.90;;;;;;4424860;28;657821;-74
2023/05/18 02:32:45;;;;;;;21.87;8.70;;;7.60;99.90;;;;;;4442184;28;657933;-73
2023/05/18 02:35:34;;;;;;;32.03;9.30;;;7.60;99.90;;;;;;4419395;28;658194;-73
2023/05/18 02:38:21;;;;;;;23.90;9.43;;;7.60;99.90;;;;;;4343245;28;657926;-72
2023/05/18 02:41:08;;;;;;;27.77;9.03;;;7.60;99.90;;;;;;4309877;28;657907;-72
2023/05/18 02:43:56;;;;;;;34.40;9.80;;;7.60;99.90;;;;;;4288655;28;657905;-72
2023/05/18 02:46:43;;;;;;;24.60;9.10;;;7.60;99.90;;;;;;4365882;28;657522;-73
2023/05/18 02:49:32;;;;;;;26.07;9.77;;;7.60;99.90;;;;;;4423428;28;657905;-73
2023/05/18 02:52:21;;;;;;;24.63;10.23;;;7.60;99.90;;;;;;4445369;28;657017;-74
2023/05/18 02:55:09;;;;;;;29.33;10.60;;;7.60;99.90;;;;;;4419847;28;658989;-74
2023/05/18 02:57:56;;;;;;;26.73;10.00;;;7.60;99.90;;;;;;4419566;28;659088;-74
2023/05/18 03:00:44;;;;;;;27.67;9.67;;;7.50;99.90;;;;;;4432320;28;660090;-74
2023/05/18 03:03:31;;;;;;;28.87;11.00;;;7.50;99.90;;;;;;4422219;28;658083;-73
2023/05/18 03:06:22;;;;;;;30.47;10.13;;;7.50;99.90;;;;;;4443370;28;658569;-74
2023/05/18 03:09:10;;;;;;;40.73;11.13;;;7.50;99.90;;;;;;4419271;28;658428;-73
2023/05/18 03:11:57;;;;;;;34.60;9.83;;;7.50;99.90;;;;;;4421708;28;659252;-74
2023/05/18 03:14:45;;;;;;;28.40;10.40;;;7.50;99.90;;;;;;4443950;28;657729;-73
2023/05/18 03:17:33;;;;;;;29.33;10.17;;;7.50;99.90;;;;;;4446983;28;659232;-74
2023/05/18 03:20:20;;;;;;;26.07;10.47;;;7.50;99.90;;;;;;4429337;28;658983;-73
2023/05/18 03:23:08;;;;;;;26.00;11.23;;;7.50;99.90;;;;;;4445940;28;658979;-74
2023/05/18 03:25:57;;;;;;;30.40;10.87;;;7.50;99.90;;;;;;4423534;28;659191;-72
2023/05/18 03:28:44;;;;;;;30.00;10.40;;;7.50;99.90;;;;;;4442339;28;658927;-74
2023/05/18 03:31:31;;;;;;;30.00;10.60;;;7.50;99.90;;;;;;4418891;28;658585;-74
2023/05/18 03:34:18;;;;;;;33.63;10.77;;;7.50;99.90;;;;;;4442124;28;659646;-73
2023/05/18 03:37:06;;;;;;;27.60;9.97;;;7.50;99.90;;;;;;4419977;28;658513;-73
2023/05/18 03:39:53;;;;;;;27.97;9.80;;;7.50;99.90;;;;;;4446392;28;658769;-73
2023/05/18 03:42:42;;;;;;;34.92;11.30;;;7.50;99.90;;;;;;4424658;28;657850;-73
2023/05/18 03:45:29;;;;;;;27.97;10.90;;;7.50;99.90;;;;;;4438511;28;659144;-73
2023/05/18 03:48:17;;;;;;;28.25;9.98;;;7.60;99.90;;;;;;4420678;28;659363;-74
2023/05/18 03:51:05;;;;;;;23.20;9.90;;;7.60;99.90;;;;;;4442932;28;659582;-74
2023/05/18 03:53:52;;;;;;;32.20;11.37;;;7.50;99.90;;;;;;4422208;28;657921;-73
2023/05/18 03:56:39;;;;;;;30.50;10.48;;;7.50;99.90;;;;;;4436253;28;658409;-74
2023/05/18 03:59:28;;;;;;;29.07;10.13;;;7.50;99.90;;;;;;4421915;28;659542;-74
2023/05/18 04:02:16;;;;;;;28.10;10.87;;;7.50;99.90;;;;;;4410549;28;658736;-73
2023/05/18 04:05:04;;;;;;;25.17;10.50;;;7.50;99.90;;;;;;4444477;28;659142;-74
2023/05/18 04:07:51;;;;;;;23.60;10.13;;;7.50;99.90;;;;;;4423142;28;658610;-74
2023/05/18 04:10:38;;;;;;;34.07;10.40;;;7.50;99.90;;;;;;4443175;28;659461;-73
2023/05/18 04:13:25;;;;;;;29.90;9.43;;;7.50;99.90;;;;;;4422295;28;659059;-73
2023/05/18 04:16:14;;;;;;;25.47;9.97;;;7.60;99.90;;;;;;4443611;28;658280;-74
2023/05/18 04:19:02;;;;;;;25.17;9.40;;;7.60;99.90;;;;;;4423578;28;658238;-73
2023/05/18 04:21:50;;;;;;;27.53;9.30;;;7.60;99.90;;;;;;4440319;28;657769;-73
2023/05/18 04:24:40;;;;;;;22.80;8.63;;;7.60;99.90;;;;;;4436783;28;658772;-73
2023/05/18 04:27:28;;;;;;;20.57;8.87;;;7.70;99.90;;;;;;4419834;28;657726;-74
2023/05/18 04:30:17;;;;;;;23.03;7.80;;;7.70;99.90;;;;;;4421536;28;657495;-73
2023/05/18 04:33:06;;;;;;;22.37;7.60;;;7.70;99.90;;;;;;4440477;28;658377;-74
2023/05/18 04:35:54;;;;;;;21.13;8.38;;;7.70;99.90;;;;;;4417222;28;658265;-74
2023/05/18 04:38:42;;;;;;;22.60;8.30;;;7.70;99.90;;;;;;4420773;28;658933;-73
2023/05/18 04:41:32;;;;;;;26.20;9.53;;;7.70;99.90;;;;;;4434033;28;657437;-74
2023/05/18 04:44:20;;;;;;;31.27;8.90;;;7.70;99.90;;;;;;4438954;28;657719;-73
2023/05/18 04:47:07;;;;;;;23.97;8.80;;;7.70;99.90;;;;;;4444138;28;658231;-74
2023/05/18 04:49:56;;;;;;;22.93;8.43;;;7.70;99.90;;;;;;4440222;28;658124;-74
2023/05/18 04:52:46;;;;;;;23.63;9.50;;;7.80;99.90;;;;;;4417386;28;658059;-73
2023/05/18 04:55:34;;;;;;;25.00;8.67;;;7.70;99.90;;;;;;4412481;28;658301;-74
2023/05/18 04:58:21;;;;;;;22.07;8.57;;;7.70;99.90;;;;;;4415651;28;658075;-73
2023/05/18 05:01:08;;;;;;;19.40;8.70;;;7.80;99.90;;;;;;4422728;28;658526;-74
2023/05/18 05:03:55;;;;;;;19.90;8.60;;;7.80;99.90;;;;;;4411385;28;657405;-73
2023/05/18 05:06:44;;;;;;;20.77;7.93;;;7.80;99.90;;;;;;4445617;28;657481;-73
2023/05/18 05:09:31;;;;;;;25.60;8.53;;;7.80;99.90;;;;;;4422636;28;657762;-73
2023/05/18 05:12:18;;;;;;;19.17;8.20;;;7.90;99.90;;;;;;4442354;28;658284;-74
2023/05/18 05:15:07;;;;;;;20.13;7.87;;;8.00;99.90;;;;;;4423430;28;656992;-74
2023/05/18 05:17:54;;;;;;;19.70;7.33;;;8.00;99.90;;;;;;4440139;28;657212;-73
2023/05/18 05:20:41;;;;;;;23.13;8.07;;;8.00;99.90;;;;;;4419801;28;657431;-74
2023/05/18 05:23:30;;;;;;;20.90;7.40;;;8.10;99.90;;;;;;4439529;28;658624;-73
2023/05/18 05:26:17;;;;;;;19.10;7.40;;;8.10;99.90;;;;;;4417398;28;659019;-74
2023/05/18 05:29:04;;;;;;;21.33;6.97;;;8.10;99.90;;;;;;4440511;28;658336;-73
2023/05/18 05:31:52;;;;;;;19.23;6.83;;;8.10;99.90;;;;;;4424600;28;658417;-74
2023/05/18 05:34:39;;;;;;;21.80;6.43;;;8.20;99.90;;;;;;4441856;28;659029;-74
2023/05/18 05:37:26;;;;;;;13.67;5.60;;;8.20;99.90;;;;;;4420877;28;657914;-74
2023/05/18 05:40:15;;;;;;;16.10;5.30;;;8.20;99.90;;;;;;4441427;28;657818;-74
2023/05/18 05:43:02;;;;;;;17.07;6.03;;;8.30;99.90;;;;;;4414019;28;657852;-75
2023/05/18 05:45:49;;;;;;;16.80;5.57;;;8.30;99.90;;;;;;4441467;28;657529;-74
2023/05/18 05:48:36;;;;;;;16.57;5.40;;;8.30;99.90;;;;;;4418988;28;658101;-74
2023/05/18 05:51:23;;;;;;;16.43;5.27;;;8.30;99.90;;;;;;4444824;28;657643;-74
2023/05/18 05:54:11;;;;;;;21.13;5.17;;;8.40;99.90;;;;;;4423640;28;656909;-73
2023/05/18 05:56:59;;;;;;;17.47;4.47;;;8.40;99.90;;;;;;4440803;28;658507;-75
2023/05/18 05:59:46;;;;;;;12.93;4.33;;;8.50;99.90;;;;;;4415102;28;657598;-74
2023/05/18 06:02:34;;;;;;;18.33;4.87;;;8.60;99.90;;;;;;4444118;28;658307;-74
2023/05/18 06:05:21;;;;;;;22.80;4.90;;;8.50;99.90;;;;;;4424063;28;657607;-75
2023/05/18 06:08:08;;;;;;;21.63;4.63;;;8.60;99.90;;;;;;4445782;28;657832;-75
2023/05/18 06:10:55;;;;;;;19.40;5.03;;;8.60;99.90;;;;;;4424866;28;658428;-75
2023/05/18 06:13:44;;;;;;;16.07;5.20;;;8.60;99.90;;;;;;4439295;28;658096;-74
2023/05/18 06:16:31;;;;;;;17.83;4.70;;;8.70;99.90;;;;;;4424878;28;657630;-75
2023/05/18 06:19:18;;;;;;;12.83;4.13;;;8.70;99.90;;;;;;4437900;28;658352;-75
2023/05/18 06:22:06;;;;;;;13.63;3.87;;;8.70;99.90;;;;;;4425828;28;658193;-75
2023/05/18 06:24:53;;;;;;;18.13;4.30;;;8.80;99.90;;;;;;4448377;28;658217;-75
2023/05/18 06:27:41;;;;;;;15.83;4.00;;;8.80;99.90;;;;;;4429297;28;658211;-73
2023/05/18 06:30:29;;;;;;;11.53;4.07;;;8.80;99.90;;;;;;4445472;28;657837;-74
2023/05/18 06:33:19;;;;;;;18.70;4.40;;;8.90;99.90;;;;;;4423252;28;658209;-75
2023/05/18 06:36:07;;;;;;;17.43;4.27;;;8.90;99.90;;;;;;4424700;28;657397;-75
2023/05/18 06:38:54;;;;;;;18.60;5.03;;;9.00;99.90;;;;;;4445678;28;657384;-75
2023/05/18 06:41:43;;;;;;;16.57;4.57;;;9.00;99.90;;;;;;4425981;28;657819;-74
2023/05/18 06:44:31;;;;;;;16.90;4.97;;;9.00;99.90;;;;;;4422666;28;658202;-75
2023/05/18 06:47:19;;;;;;;15.93;4.70;;;9.00;99.90;;;;;;4447416;28;658319;-74
2023/05/18 06:50:07;;;;;;;14.67;4.60;;;9.10;99.90;;;;;;4420248;28;657902;-75
2023/05/18 06:52:54;;;;;;;15.07;4.83;;;9.10;99.90;;;;;;4443463;28;658047;-74
2023/05/18 06:55:41;;;;;;;16.07;4.47;;;9.30;99.90;;;;;;4421023;28;657789;-75
2023/05/18 06:58:28;;;;;;;14.03;4.40;;;9.40;99.90;;;;;;4440439;28;658882;-74
2023/05/18 07:01:16;;;;;;;14.40;4.67;;;9.50;99.90;;;;;;4414055;28;658561;-74
2023/05/18 07:04:05;;;;;;;13.33;4.17;;;9.60;99.90;;;;;;4440536;28;657606;-74
2023/05/18 07:06:54;;;;;;;14.43;3.87;;;9.70;99.90;;;;;;4422882;28;658817;-75
2023/05/18 07:09:42;;;;;;;17.33;3.90;;;9.80;99.90;;;;;;4422370;28;657818;-75
2023/05/18 07:12:29;;;;;;;13.87;3.40;;;9.80;99.90;;;;;;4442028;28;657663;-75
2023/05/18 07:15:16;;;;;;;11.73;3.40;;;9.80;99.90;;;;;;4422593;28;658051;-74
2023/05/18 07:18:04;;;;;;;12.70;3.13;;;9.80;99.90;;;;;;4439864;28;657849;-75
2023/05/18 07:20:52;;;;;;;8.03;3.20;;;9.90;99.90;;;;;;4424255;28;657821;-75
2023/05/18 07:23:40;;;;;;;11.60;3.03;;;9.90;99.90;;;;;;4441869;28;657088;-73
2023/05/18 07:26:28;;;;;;;9.70;3.47;;;10.00;99.90;;;;;;4446281;28;657668;-74
2023/05/18 07:29:15;;;;;;;14.30;4.77;;;9.90;99.90;;;;;;4422890;28;657738;-73
2023/05/18 07:32:03;;;;;;;10.03;4.17;;;9.80;99.90;;;;;;4445955;28;657912;-74
2023/05/18 07:34:50;;;;;;;13.40;5.03;;;9.90;99.90;;;;;;4434693;28;658516;-74
2023/05/18 07:37:39;;;;;;;15.77;4.70;;;9.90;99.90;;;;;;4447551;28;658030;-74
2023/05/18 07:40:26;;;;;;;12.50;4.03;;;10.00;99.90;;;;;;4420442;28;657465;-74
2023/05/18 07:43:13;;;;;;;10.45;3.65;;;10.10;99.90;;;;;;4444426;28;659073;-74
2023/05/18 07:46:00;;;;;;;9.03;3.17;;;10.10;99.90;;;;;;4420776;28;658688;-74
2023/05/18 07:48:47;;;;;;;17.30;3.53;;;10.00;99.90;;;;;;4442710;28;658586;-74
2023/05/18 07:51:35;;;;;;;14.50;3.60;;;10.20;99.90;;;;;;4435358;28;658437;-74
2023/05/18 07:54:24;;;;;;;11.33;4.13;;;10.20;99.90;;;;;;4433499;28;659921;-74
2023/05/18 07:57:11;;;;;;;13.00;3.60;;;10.30;99.90;;;;;;4419279;28;658860;-75
2023/05/18 07:59:58;;;;;;;15.83;4.17;;;10.40;99.90;;;;;;4442759;28;659408;-75
2023/05/18 08:02:46;;;;;;;13.70;3.40;;;10.40;99.90;;;;;;4421566;28;659048;-74
2023/05/18 08:05:33;;;;;;;11.33;3.00;;;10.50;99.90;;;;;;4438055;28;659258;-75
2023/05/18 08:08:20;;;;;;;11.90;3.00;;;10.60;99.90;;;;;;4419996;28;658593;-73
2023/05/18 08:11:09;;;;;;;10.47;2.90;;;10.80;99.90;;;;;;4439913;28;659757;-74
2023/05/18 08:13:56;;;;;;;11.77;2.80;;;10.80;99.90;;;;;;4416137;28;658820;-75
2023/05/18 08:16:43;;;;;;;6.93;2.30;;;10.80;99.90;;;;;;4439499;28;658655;-74
2023/05/18 08:19:30;;;;;;;6.67;2.00;;;10.90;99.90;;;;;;4416673;28;657847;-74
2023/05/18 08:22:18;;;;;;;5.93;1.90;;;11.00;99.90;;;;;;4439562;28;658164;-74
2023/05/18 08:25:05;;;;;;;10.83;2.30;;;11.00;99.90;;;;;;4429173;28;657970;-73
2023/05/18 08:27:54;;;;;;;5.07;2.10;;;10.90;99.90;;;;;;4436991;28;659321;-74
2023/05/18 08:30:41;;;;;;;10.40;2.47;;;10.80;99.90;;;;;;4421047;28;657747;-74
2023/05/18 08:33:31;;;;;;;6.53;2.17;;;10.60;99.90;;;;;;4441203;28;659132;-73
2023/05/18 08:36:18;;;;;;;8.30;2.17;;;10.80;99.90;;;;;;4420066;28;658571;-74
2023/05/18 08:39:05;;;;;;;7.83;2.17;;;10.90;99.90;;;;;;4419860;28;657653;-74
2023/05/18 08:41:58;;;;;;;7.70;2.00;;;10.80;99.90;;;;;;4442264;28;658001;-74
2023/05/18 08:44:50;;;;;;;5.63;2.30;;;10.70;99.90;;;;;;4327127;28;658206;-73
2023/05/18 08:47:38;;;;;;;13.70;2.53;;;10.90;99.90;;;;;;4283486;28;658415;-73
2023/05/18 08:50:25;;;;;;;9.73;2.15;;;11.00;99.90;;;;;;4287736;28;659007;-73
2023/05/18 08:53:12;;;;;;;9.57;2.20;;;11.20;99.90;;;;;;4352757;28;657632;-75
2023/05/18 08:56:00;;;;;;;5.17;1.70;;;11.00;99.90;;;;;;4436586;28;657441;-73
2023/05/18 08:58:48;;;;;;;6.53;2.17;;;11.00;99.90;;;;;;4447052;28;657732;-74
2023/05/18 09:01:37;;;;;;;8.27;2.00;;;10.80;99.90;;;;;;4400811;28;658029;-74
2023/05/18 09:04:24;;;;;;;11.50;2.47;;;10.70;99.90;;;;;;4439522;28;657732;-74
2023/05/18 09:07:12;;;;;;;10.20;2.50;;;10.50;99.90;;;;;;4420945;28;659834;-75
2023/05/18 09:09:59;;;;;;;9.15;2.35;;;10.50;99.90;;;;;;4435696;28;658451;-74
2023/05/18 09:12:46;;;;;;;7.80;2.43;;;10.50;99.90;;;;;;4418814;28;657832;-74
2023/05/18 09:15:34;;;;;;;12.67;2.40;;;10.50;99.90;;;;;;4435913;28;658328;-75
2023/05/18 09:18:23;;;;;;;7.57;2.70;;;10.60;99.90;;;;;;4416916;28;658704;-75
2023/05/18 09:21:10;;;;;;;8.27;2.63;;;10.70;99.90;;;;;;4431157;28;657962;-74
2023/05/18 09:23:59;;;;;;;9.00;2.73;;;10.70;99.90;;;;;;4444794;28;658082;-75
2023/05/18 09:26:46;;;;;;;8.73;2.27;;;10.80;99.90;;;;;;4420973;28;657509;-74
2023/05/18 09:29:33;;;;;;;10.67;2.77;;;10.70;99.90;;;;;;4441669;28;658237;-76
2023/05/18 09:32:20;;;;;;;10.03;2.10;;;10.70;99.90;;;;;;4422808;28;658772;-73
2023/05/18 09:35:10;;;;;;;7.50;2.33;;;11.00;99.90;;;;;;4441718;28;659806;-74
2023/05/18 09:37:57;;;;;;;8.47;2.37;;;11.20;99.90;;;;;;4424610;28;658113;-75
2023/05/18 09:40:45;;;;;;;8.23;2.50;;;11.20;99.90;;;;;;4442039;28;657321;-75
2023/05/18 09:43:32;;;;;;;7.50;2.20;;;11.20;99.90;;;;;;4423389;28;657829;-74
2023/05/18 09:46:20;;;;;;;6.43;1.93;;;11.10;99.90;;;;;;4442309;28;657588;-73
2023/05/18 09:49:08;;;;;;;4.83;2.13;;;11.00;99.90;;;;;;4418805;28;658677;-74
2023/05/18 09:51:58;;;;;;;6.20;1.93;;;10.90;99.90;;;;;;4422252;28;659235;-75
2023/05/18 09:54:53;;;;;;;13.97;2.20;;;11.00;99.90;;;;;;4426157;28;657742;-75
2023/05/18 09:57:42;;;;;;;15.17;2.63;;;10.90;99.90;;;;;;4409716;28;658926;-74
2023/05/18 10:00:31;;;;;;;10.03;2.60;;;10.70;99.90;;;;;;4427789;28;659309;-75
2023/05/18 10:03:20;;;;;;;9.97;2.30;;;10.90;99.90;;;;;;4438071;28;659619;-74
2023/05/18 10:06:08;;;;;;;10.13;2.23;;;10.80;99.90;;;;;;4415005;28;658067;-74
2023/05/18 10:08:58;;;;;;;13.27;2.37;;;11.00;99.90;;;;;;4420050;28;658452;-74
2023/05/18 10:11:45;;;;;;;9.87;2.10;;;11.00;99.90;;;;;;4426069;28;659044;-75
2023/05/18 10:14:35;;;;;;;5.13;2.20;;;11.10;99.90;;;;;;4440394;28;658517;-75
2023/05/18 10:17:24;;;;;;;5.87;1.90;;;11.10;99.90;;;;;;4416000;28;657967;-75
2023/05/18 10:20:12;;;;;;;10.20;2.33;;;11.00;99.90;;;;;;4423914;28;657572;-75
2023/05/18 10:22:59;;;;;;;8.37;2.50;;;10.70;99.90;;;;;;4438760;28;658252;-74
2023/05/18 10:25:48;;;;;;;7.50;2.13;;;10.60;99.90;;;;;;4423141;28;657772;-74
2023/05/18 10:28:38;;;;;;;4.93;1.90;;;10.70;99.90;;;;;;4423013;28;657456;-74
2023/05/18 10:31:25;;;;;;;6.87;2.20;;;10.80;99.90;;;;;;4420597;28;658401;-75
2023/05/18 10:34:12;;;;;;;7.87;2.07;;;10.90;99.90;;;;;;4442228;28;658079;-75
2023/05/18 10:37:02;;;;;;;5.60;1.60;;;10.90;99.90;;;;;;4437065;28;657651;-75
2023/05/18 10:39:51;;;;;;;10.20;1.70;;;10.70;99.90;;;;;;4443671;28;657931;-74
2023/05/18 10:42:39;;;;;;;7.33;2.00;;;10.50;99.90;;;;;;4441244;28;658651;-74
2023/05/18 10:45:27;;;;;;;7.27;2.23;;;10.40;99.90;;;;;;4423501;28;657883;-75
2023/05/18 10:48:15;;;;;;;5.17;2.00;;;10.40;99.90;;;;;;4437936;28;657404;-75
2023/05/18 10:51:04;;;;;;;5.27;1.87;;;10.30;99.90;;;;;;4423240;28;659076;-76
2023/05/18 10:53:51;;;;;;;6.73;2.10;;;10.30;99.90;;;;;;4419975;28;658087;-75
2023/05/18 10:56:38;;;;;;;6.63;2.17;;;10.10;99.90;;;;;;4434741;28;658264;-75
2023/05/18 10:59:27;;;;;;;10.33;2.27;;;10.10;99.90;;;;;;4418062;28;657771;-75
2023/05/18 11:02:15;;;;;;;8.70;2.60;;;10.10;99.90;;;;;;4410693;28;658089;-75
2023/05/18 11:05:05;;;;;;;11.37;2.20;;;10.10;99.90;;;;;;4419356;28;657963;-74
2023/05/18 11:07:59;;;;;;;8.33;2.33;;;10.00;99.90;;;;;;4416778;28;659514;-75
2023/05/18 11:10:46;;;;;;;5.03;2.00;;;9.90;99.90;;;;;;4392374;28;657971;-75
2023/05/18 11:13:34;;;;;;;8.20;1.83;;;9.80;99.90;;;;;;4443321;28;657186;-75
2023/05/18 11:16:23;;;;;;;5.30;1.93;;;9.70;99.90;;;;;;4418331;28;657844;-75
2023/05/18 11:19:11;;;;;;;8.13;1.60;;;9.70;99.90;;;;;;4428763;28;656750;-75
2023/05/18 11:21:58;;;;;;;7.47;1.70;;;9.70;99.90;;;;;;4443986;28;657236;-75
2023/05/18 11:24:46;;;;;;;6.60;1.83;;;9.60;99.90;;;;;;4429238;28;656232;-74
2023/05/18 11:27:34;;;;;;;6.20;1.70;;;9.70;99.90;;;;;;4442449;28;657087;-75
2023/05/18 11:30:27;;;;;;;8.20;2.10;;;9.80;99.90;;;;;;4420027;28;656531;-74
2023/05/18 11:33:17;;;;;;;7.23;1.73;;;9.80;99.90;;;;;;4418073;28;656389;-75
2023/05/18 11:36:07;;;;;;;6.33;1.70;;;9.90;99.90;;;;;;4417040;28;656327;-75
2023/05/18 11:38:55;;;;;;;7.43;1.90;;;10.00;99.90;;;;;;4440126;28;656614;-75
2023/05/18 11:41:43;;;;;;;6.60;2.20;;;10.10;99.90;;;;;;4419427;28;657617;-75
2023/05/18 11:44:31;;;;;;;5.37;2.03;;;10.10;99.90;;;;;;4421622;28;657737;-75
2023/05/18 11:47:18;;;;;;;4.47;1.80;;;10.20;99.90;;;;;;4446213;28;658622;-75
2023/05/18 11:50:09;;;;;;;7.03;2.50;;;10.30;99.90;;;;;;4420682;28;658339;-75
2023/05/18 11:52:58;;;;;;;8.33;2.00;;;10.10;99.90;;;;;;4419297;28;657768;-75
2023/05/18 11:55:45;;;;;;;8.23;2.07;;;10.20;99.90;;;;;;4423499;28;657366;-75
2023/05/18 11:58:33;;;;;;;5.10;2.03;;;10.20;99.90;;;;;;4439965;28;657990;-75
2023/05/18 12:01:22;;;;;;;11.83;2.67;;;10.10;99.90;;;;;;4426638;28;657823;-75
2023/05/18 12:04:09;;;;;;;12.10;2.65;;;10.30;99.90;;;;;;4435005;28;660719;-74
2023/05/18 12:06:58;;;;;;;8.57;2.83;;;10.30;99.90;;;;;;4419471;28;658653;-73
2023/05/18 12:09:45;;;;;;;8.50;2.90;;;10.30;99.90;;;;;;4420168;28;657597;-74
2023/05/18 12:12:33;;;;;;;8.83;2.97;;;10.30;99.90;;;;;;4442020;28;658637;-75
2023/05/18 12:15:22;;;;;;;9.43;2.50;;;10.20;99.90;;;;;;4425166;28;657834;-73
2023/05/18 12:18:09;;;;;;;8.60;2.67;;;10.00;99.90;;;;;;4444401;28;657682;-75
2023/05/18 12:20:56;;;;;;;10.97;2.73;;;10.10;99.90;;;;;;4420678;28;657788;-75
2023/05/18 12:23:45;;;;;;;11.47;2.87;;;10.00;99.90;;;;;;4439132;28;659333;-75
2023/05/18 12:26:32;;;;;;;8.80;2.70;;;10.10;99.90;;;;;;4422051;28;659539;-74
2023/05/18 12:29:20;;;;;;;10.23;2.40;;;10.20;99.90;;;;;;4439772;28;657810;-75
2023/05/18 12:32:09;;;;;;;9.17;2.50;;;10.20;99.90;;;;;;4414887;28;658834;-74
2023/05/18 12:34:56;;;;;;;8.73;2.90;;;10.20;99.90;;;;;;4422787;28;658467;-75
2023/05/18 12:37:43;;;;;;;7.33;2.20;;;10.10;99.90;;;;;;4445493;28;657829;-74
2023/05/18 12:40:43;;;;;;;6.47;2.97;;;10.00;99.90;;;;;;4421258;28;657579;-74
2023/05/18 12:43:33;;;;;;;11.37;3.10;;;10.00;99.90;;;;;;4412865;28;658010;-74
2023/05/18 12:46:22;;;;;;;6.33;2.17;;;10.00;99.90;;;;;;4420518;28;658444;-74
2023/05/18 12:49:09;;;;;;;7.23;2.27;;;10.00;99.90;;;;;;4439301;28;658401;-74
2023/05/18 12:51:56;;;;;;;7.93;2.07;;;9.90;99.90;;;;;;4416057;28;657524;-74
2023/05/18 12:54:53;;;;;;;4.00;1.60;;;10.00;99.90;;;;;;4439209;28;657060;-74
2023/05/18 12:57:42;;;;;;;6.93;2.00;;;9.90;99.90;;;;;;4388751;28;657875;-74
2023/05/18 13:00:32;;;;;;;6.73;1.87;;;9.80;99.90;;;;;;4433314;28;656253;-75
2023/05/18 13:03:20;;;;;;;7.03;2.40;;;9.80;99.90;;;;;;4417798;28;656704;-75
2023/05/18 13:06:08;;;;;;;6.80;2.30;;;9.80;99.90;;;;;;4412081;28;656676;-74
2023/05/18 13:08:55;;;;;;;11.87;2.67;;;9.80;99.90;;;;;;4425739;28;656709;-74
2023/05/18 13:11:47;;;;;;;9.40;3.50;;;9.90;99.90;;;;;;4440447;28;658353;-75
2023/05/18 13:14:39;;;;;;;13.20;5.37;;;9.80;99.90;;;;;;4415743;28;656133;-75
2023/05/18 13:17:26;;;;;;;10.20;3.70;;;9.90;99.90;;;;;;4421642;28;657365;-75
2023/05/18 13:20:14;;;;;;;14.63;4.63;;;9.80;99.90;;;;;;4436817;28;657924;-74
2023/05/18 13:23:02;;;;;;;10.80;4.80;;;9.80;99.90;;;;;;4420353;28;657455;-74
2023/05/18 13:25:50;;;;;;;9.40;3.13;;;10.00;99.90;;;;;;4432123;28;657534;-74
2023/05/18 13:28:37;;;;;;;5.07;1.87;;;10.10;99.90;;;;;;4417885;28;658259;-74
2023/05/18 13:31:25;;;;;;;12.43;4.53;;;10.20;99.90;;;;;;4440853;28;657660;-74
2023/05/18 13:34:13;;;;;;;5.27;1.90;;;10.20;99.90;;;;;;4412118;28;659553;-75
2023/05/18 13:37:00;;;;;;;4.60;2.00;;;10.30;99.90;;;;;;4429098;28;658120;-75
2023/05/18 13:39:47;;;;;;;5.63;1.83;;;10.50;99.90;;;;;;4439026;28;659023;-75
2023/05/18 13:42:34;;;;;;;5.43;1.70;;;10.60;99.90;;;;;;4431384;28;657884;-76
2023/05/18 13:45:22;;;;;;;3.13;1.80;;;10.70;99.90;;;;;;4420154;28;659118;-74
2023/05/18 13:48:10;;;;;;;4.83;1.70;;;10.80;99.90;;;;;;4435115;28;657529;-75
2023/05/18 13:50:58;;;;;;;3.38;1.75;;;11.00;99.90;;;;;;4414957;28;658024;-76
2023/05/18 13:53:45;;;;;;;5.80;1.97;;;11.00;99.90;;;;;;4433877;28;657793;-75
2023/05/18 13:56:32;;;;;;;4.83;2.40;;;11.10;99.90;;;;;;4441209;28;657830;-74
2023/05/18 13:59:20;;;;;;;5.27;2.20;;;11.30;99.90;;;;;;4440852;28;657961;-74
2023/05/18 14:02:07;;;;;;;6.07;1.90;;;11.30;99.90;;;;;;4404060;28;658166;-75
2023/05/18 14:04:57;;;;;;;6.83;2.03;;;11.10;99.90;;;;;;4435059;28;657518;-75
2023/05/18 14:07:44;;;;;;;5.33;2.43;;;11.00;99.90;;;;;;4441258;28;657687;-75
2023/05/18 14:10:31;;;;;;;9.63;2.40;;;10.90;99.90;;;;;;4422189;28;657820;-75
2023/05/18 14:13:19;;;;;;;9.27;2.40;;;10.80;99.90;;;;;;4443039;28;657539;-75
2023/05/18 14:16:07;;;;;;;3.23;1.93;;;10.60;99.90;;;;;;4423337;28;657582;-75
2023/05/18 14:18:54;;;;;;;5.63;1.70;;;10.40;99.90;;;;;;4441517;28;657512;-74